Terminal Aerodrome Forecast
Issued by NWS Memphis, TN

Home | Current Version | Previous Version | Text Only | Print | Product List | Glossary On
Versions: 1 2 3 4 5 6 7 8 9 10 11 12 13 14 15 16 17 18 19 20 21 22 23 24 25 26 27 28 29 30 31 32 33 34 35 36
000
FTUS44 KMEG 051518 AAA
TAFMEM
TAF AMD
KMEM 051518Z 0515/0612 01014G20KT P6SM SCT020 OVC090
     FM051800 01012G18KT P6SM SCT030
      TEMPO 0518/0522 BKN030
     FM060000 02005KT P6SM SKC=

USA.gov is the U.S. government's official web portal to all federal, state and local government web resources and services.